Time;durP1;ratioP1;P1;durP2;ratioP2;P2;SDS_P1;SDS_P2;PMS_P1;PMS_P2;Temp;Humidity;BMP_temperature;BMP_pressure;BME280_temperature;BME280_humidity;BME280_pressure;Samples;Min_cycle;Max_cycle;Signal;HPM_P1;HPM_P2
2023/10/27 00:01:50;;;;;;;2.50;1.30;;;;;;;;;;5029164;28;20695;-76
2023/10/27 00:04:18;;;;;;;3.27;1.30;;;;;;;;;;5031517;28;20679;-75
2023/10/27 00:06:45;;;;;;;2.00;1.30;;;;;;;;;;5023186;28;20223;-77
2023/10/27 00:09:12;;;;;;;4.30;1.87;;;;;;;;;;5028306;28;20282;-75
2023/10/27 00:11:40;;;;;;;4.23;1.50;;;;;;;;;;5022778;28;20218;-74
2023/10/27 00:14:07;;;;;;;3.43;1.67;;;;;;;;;;5007312;28;20693;-75
2023/10/27 00:16:34;;;;;;;4.07;1.50;;;;;;;;;;5016463;28;20207;-75
2023/10/27 00:19:02;;;;;;;2.33;1.30;;;;;;;;;;5010814;28;20316;-77
2023/10/27 00:21:29;;;;;;;2.43;1.40;;;;;;;;;;5018249;28;20949;-75
2023/10/27 00:23:57;;;;;;;1.93;1.40;;;;;;;;;;5025805;28;20203;-77
2023/10/27 00:26:24;;;;;;;2.13;1.30;;;;;;;;;;5021695;28;20214;-75
2023/10/27 00:28:51;;;;;;;3.57;1.40;;;;;;;;;;5026120;28;20671;-76
2023/10/27 00:31:18;;;;;;;2.83;1.20;;;;;;;;;;5029131;28;20231;-75
2023/10/27 00:33:46;;;;;;;3.27;1.40;;;;;;;;;;5023843;28;20302;-75
2023/10/27 00:36:13;;;;;;;2.07;1.10;;;;;;;;;;5009533;28;20198;-77
2023/10/27 00:38:40;;;;;;;1.57;1.20;;;;;;;;;;5022481;28;20593;-75
2023/10/27 00:41:08;;;;;;;2.93;1.33;;;;;;;;;;5026312;28;20499;-74
2023/10/27 00:43:35;;;;;;;2.70;1.37;;;;;;;;;;5023818;28;20206;-77
2023/10/27 00:46:02;;;;;;;2.27;1.20;;;;;;;;;;5021847;28;20321;-74
2023/10/27 00:48:30;;;;;;;3.50;1.50;;;;;;;;;;5029939;28;20305;-75
2023/10/27 00:50:58;;;;;;;1.90;1.30;;;;;;;;;;5024529;28;20589;-76
2023/10/27 00:53:25;;;;;;;1.90;1.30;;;;;;;;;;5025331;28;20222;-75
2023/10/27 00:55:52;;;;;;;11.20;4.77;;;;;;;;;;5026778;28;20206;-77
2023/10/27 00:58:21;;;;;;;2.43;1.40;;;;;;;;;;5026961;28;20211;-75
2023/10/27 01:00:48;;;;;;;3.47;1.20;;;;;;;;;;5022710;28;20230;-75
2023/10/27 01:03:15;;;;;;;1.27;1.17;;;;;;;;;;5023485;28;20218;-75
2023/10/27 01:05:43;;;;;;;2.33;1.40;;;;;;;;;;5020591;28;20203;-75
2023/10/27 01:08:10;;;;;;;3.03;1.40;;;;;;;;;;5017958;28;20971;-76
2023/10/27 01:10:37;;;;;;;1.83;1.30;;;;;;;;;;5022739;28;20222;-77
2023/10/27 01:13:05;;;;;;;2.77;1.30;;;;;;;;;;5026679;28;20206;-77
2023/10/27 01:15:32;;;;;;;2.33;1.27;;;;;;;;;;5028701;28;20206;-75
2023/10/27 01:17:59;;;;;;;2.00;1.27;;;;;;;;;;5008219;28;20210;-75
2023/10/27 01:20:26;;;;;;;2.93;1.23;;;;;;;;;;5023005;28;20223;-74
2023/10/27 01:22:54;;;;;;;1.73;1.40;;;;;;;;;;5025121;28;20271;-76
2023/10/27 01:25:22;;;;;;;2.87;1.30;;;;;;;;;;5021661;28;20201;-76
2023/10/27 01:27:50;;;;;;;2.37;1.30;;;;;;;;;;5025729;28;20203;-77
2023/10/27 01:30:17;;;;;;;1.67;1.10;;;;;;;;;;5025332;28;20262;-76
2023/10/27 01:32:45;;;;;;;1.53;1.20;;;;;;;;;;5022552;28;20617;-74
2023/10/27 01:35:13;;;;;;;2.07;1.07;;;;;;;;;;5024157;28;20217;-76
2023/10/27 01:37:40;;;;;;;3.30;1.33;;;;;;;;;;5020898;28;20204;-75
2023/10/27 01:40:08;;;;;;;1.60;1.43;;;;;;;;;;5027971;28;20235;-75
2023/10/27 01:42:36;;;;;;;2.00;1.10;;;;;;;;;;5025506;28;20227;-75
2023/10/27 01:45:08;;;;;;;1.80;1.20;;;;;;;;;;5020873;28;20203;-77
2023/10/27 01:47:35;;;;;;;2.90;1.47;;;;;;;;;;5021262;28;20207;-75
2023/10/27 01:50:02;;;;;;;1.40;1.20;;;;;;;;;;5003663;28;20199;-77
2023/10/27 01:52:30;;;;;;;1.77;1.33;;;;;;;;;;5019743;28;20214;-74
2023/10/27 01:54:57;;;;;;;3.47;1.70;;;;;;;;;;5035201;28;20211;-76
2023/10/27 01:57:25;;;;;;;3.30;1.70;;;;;;;;;;5035191;28;20286;-77
2023/10/27 01:59:53;;;;;;;1.80;1.37;;;;;;;;;;5025868;28;20876;-77
2023/10/27 02:02:20;;;;;;;2.03;1.37;;;;;;;;;;5036109;28;20219;-74
2023/10/27 02:04:47;;;;;;;2.70;1.40;;;;;;;;;;5035794;28;20203;-75
2023/10/27 02:07:15;;;;;;;3.63;1.67;;;;;;;;;;5034142;28;20211;-75
2023/10/27 02:09:43;;;;;;;1.70;1.60;;;;;;;;;;5034041;28;20203;-75
2023/10/27 02:12:11;;;;;;;1.53;1.30;;;;;;;;;;5029339;28;20203;-77
2023/10/27 02:14:39;;;;;;;3.83;1.20;;;;;;;;;;5014333;28;20655;-75
2023/10/27 02:17:06;;;;;;;1.43;1.10;;;;;;;;;;5035074;28;20210;-77
2023/10/27 02:19:34;;;;;;;2.00;1.40;;;;;;;;;;5032603;28;20214;-75
2023/10/27 02:22:02;;;;;;;1.50;1.20;;;;;;;;;;5035971;28;20242;-77
2023/10/27 02:24:29;;;;;;;1.77;1.40;;;;;;;;;;5032995;28;20198;-76
2023/10/27 02:26:58;;;;;;;1.73;1.37;;;;;;;;;;5031255;28;20229;-77
2023/10/27 02:29:26;;;;;;;1.60;1.50;;;;;;;;;;5035942;28;20573;-76
2023/10/27 02:31:53;;;;;;;2.23;1.70;;;;;;;;;;5040961;28;20229;-75
2023/10/27 02:34:20;;;;;;;4.77;1.70;;;;;;;;;;5052826;28;20210;-77
2023/10/27 02:36:48;;;;;;;1.43;1.33;;;;;;;;;;5037558;28;20207;-77
2023/10/27 02:39:15;;;;;;;2.30;1.40;;;;;;;;;;5030962;28;20294;-77
2023/10/27 02:41:43;;;;;;;1.93;1.50;;;;;;;;;;5031227;28;20763;-76
2023/10/27 02:44:10;;;;;;;1.80;1.70;;;;;;;;;;5017450;28;20297;-75
2023/10/27 02:46:37;;;;;;;1.70;1.60;;;;;;;;;;5029440;28;20292;-76
2023/10/27 02:49:05;;;;;;;2.93;1.93;;;;;;;;;;5037038;28;20199;-76
2023/10/27 02:51:33;;;;;;;2.57;2.27;;;;;;;;;;5039773;28;20249;-76
2023/10/27 02:54:01;;;;;;;2.80;1.90;;;;;;;;;;5038820;28;20209;-76
2023/10/27 02:56:29;;;;;;;2.87;1.60;;;;;;;;;;5022003;28;20228;-76
2023/10/27 02:58:56;;;;;;;1.87;1.77;;;;;;;;;;5014968;28;20214;-75
2023/10/27 03:01:23;;;;;;;4.67;1.50;;;;;;;;;;5030852;28;20231;-76
2023/10/27 03:03:51;;;;;;;1.73;1.63;;;;;;;;;;5010500;28;20215;-75
2023/10/27 03:06:18;;;;;;;1.97;1.50;;;;;;;;;;5031623;28;20207;-76
2023/10/27 03:08:45;;;;;;;4.30;1.70;;;;;;;;;;5029772;28;20226;-77
2023/10/27 03:11:13;;;;;;;2.60;1.50;;;;;;;;;;5031214;28;20226;-75
2023/10/27 03:13:40;;;;;;;3.07;1.70;;;;;;;;;;5024294;28;20230;-74
2023/10/27 03:16:08;;;;;;;1.97;1.50;;;;;;;;;;5030732;28;20206;-75
2023/10/27 03:18:35;;;;;;;2.37;1.40;;;;;;;;;;5027874;28;20502;-75
2023/10/27 03:21:03;;;;;;;1.70;1.60;;;;;;;;;;5044512;28;20718;-77
2023/10/27 03:23:31;;;;;;;1.40;1.30;;;;;;;;;;5043795;28;20202;-76
2023/10/27 03:25:58;;;;;;;1.77;1.60;;;;;;;;;;5045382;28;20209;-77
2023/10/27 03:28:26;;;;;;;1.60;1.50;;;;;;;;;;5043248;28;20232;-77
2023/10/27 03:30:53;;;;;;;1.40;1.30;;;;;;;;;;5038528;28;20231;-77
2023/10/27 03:33:21;;;;;;;2.87;1.50;;;;;;;;;;5039357;28;20222;-80
2023/10/27 03:35:48;;;;;;;1.47;1.37;;;;;;;;;;5048355;28;20264;-77
2023/10/27 03:38:17;;;;;;;2.13;1.60;;;;;;;;;;5051525;28;20290;-76
2023/10/27 03:40:47;;;;;;;1.67;1.27;;;;;;;;;;5035479;28;20234;-78
2023/10/27 03:43:15;;;;;;;1.97;1.40;;;;;;;;;;5036019;28;20282;-78
2023/10/27 03:45:43;;;;;;;1.60;1.50;;;;;;;;;;5035603;28;20209;-77
2023/10/27 03:48:10;;;;;;;1.80;1.70;;;;;;;;;;5036977;28;20199;-77
2023/10/27 03:50:37;;;;;;;3.13;1.47;;;;;;;;;;5018140;28;20223;-76
2023/10/27 03:53:05;;;;;;;1.70;1.60;;;;;;;;;;5037930;28;20203;-77
2023/10/27 03:55:32;;;;;;;1.53;1.43;;;;;;;;;;5028205;28;20207;-78
2023/10/27 03:58:20;;;;;;;1.57;1.47;;;;;;;;;;5016799;28;20207;-77
2023/10/27 04:00:59;;;;;;;1.93;1.70;;;;;;;;;;5001421;28;20234;-78
2023/10/27 04:03:26;;;;;;;1.93;1.60;;;;;;;;;;5058651;28;20225;-76
2023/10/27 04:05:54;;;;;;;2.23;1.77;;;;;;;;;;5049605;28;20230;-78
2023/10/27 04:08:21;;;;;;;1.97;1.70;;;;;;;;;;5039291;28;20207;-78
2023/10/27 04:10:49;;;;;;;1.70;1.60;;;;;;;;;;5048491;28;20280;-78
2023/10/27 04:13:16;;;;;;;1.77;1.60;;;;;;;;;;5028826;28;20651;-79
2023/10/27 04:15:44;;;;;;;1.90;1.80;;;;;;;;;;5039430;28;20210;-79
2023/10/27 04:18:12;;;;;;;1.57;1.50;;;;;;;;;;5047629;28;20707;-80
2023/10/27 04:20:40;;;;;;;2.37;2.00;;;;;;;;;;5038119;28;20224;-77
2023/10/27 04:23:09;;;;;;;2.83;1.67;;;;;;;;;;5037756;28;20212;-78
2023/10/27 04:25:39;;;;;;;1.50;1.40;;;;;;;;;;5019391;28;20631;-78
2023/10/27 04:28:06;;;;;;;1.70;1.60;;;;;;;;;;5019839;28;20208;-78
2023/10/27 04:30:36;;;;;;;1.70;1.60;;;;;;;;;;5033839;28;20682;-79
2023/10/27 04:33:09;;;;;;;2.57;1.73;;;;;;;;;;5027221;28;20207;-77
2023/10/27 04:35:37;;;;;;;2.63;2.17;;;;;;;;;;5027540;28;20206;-77
2023/10/27 04:38:05;;;;;;;2.37;2.20;;;;;;;;;;5022971;28;20207;-77
2023/10/27 04:40:34;;;;;;;2.10;2.00;;;;;;;;;;5025791;28;20219;-78
2023/10/27 04:43:03;;;;;;;2.90;2.70;;;;;;;;;;5026451;28;20223;-78
2023/10/27 04:45:30;;;;;;;2.87;2.67;;;;;;;;;;5010858;28;20264;-77
2023/10/27 04:47:57;;;;;;;3.87;3.00;;;;;;;;;;5025585;28;20569;-78
2023/10/27 04:50:25;;;;;;;3.30;3.00;;;;;;;;;;5015436;28;20219;-78
2023/10/27 04:52:53;;;;;;;7.53;3.40;;;;;;;;;;5024747;28;20199;-78
2023/10/27 04:55:20;;;;;;;3.70;3.40;;;;;;;;;;5027476;28;20210;-78
2023/10/27 04:57:47;;;;;;;3.83;3.43;;;;;;;;;;5030120;28;20252;-77
2023/10/27 05:00:14;;;;;;;5.63;3.37;;;;;;;;;;5027144;28;20375;-76
2023/10/27 05:02:42;;;;;;;4.50;3.60;;;;;;;;;;5027116;28;20277;-78
2023/10/27 05:05:09;;;;;;;3.97;3.60;;;;;;;;;;5028794;28;20207;-78
2023/10/27 05:07:37;;;;;;;3.80;3.40;;;;;;;;;;5030525;28;20213;-76
2023/10/27 05:10:08;;;;;;;3.70;3.30;;;;;;;;;;5026267;28;21014;-77
2023/10/27 05:12:36;;;;;;;3.10;2.83;;;;;;;;;;5014034;28;20298;-77
2023/10/27 05:15:03;;;;;;;3.33;3.03;;;;;;;;;;5014777;28;20293;-76
2023/10/27 05:17:34;;;;;;;3.73;2.77;;;;;;;;;;5038525;28;20214;-78
2023/10/27 05:20:02;;;;;;;4.83;2.93;;;;;;;;;;5031947;28;20213;-78
2023/10/27 05:22:30;;;;;;;2.90;2.70;;;;;;;;;;5034928;28;20610;-77
2023/10/27 05:24:57;;;;;;;3.50;2.80;;;;;;;;;;5033409;28;20211;-78
2023/10/27 05:27:25;;;;;;;3.80;3.03;;;;;;;;;;5037658;28;20199;-78
2023/10/27 05:29:52;;;;;;;2.73;2.53;;;;;;;;;;5032911;28;20217;-75
2023/10/27 05:32:20;;;;;;;2.73;2.53;;;;;;;;;;5025958;28;20290;-76
2023/10/27 05:34:53;;;;;;;2.90;2.70;;;;;;;;;;5027797;28;20242;-77
2023/10/27 05:37:21;;;;;;;2.67;2.47;;;;;;;;;;5025318;28;20233;-76
2023/10/27 05:39:49;;;;;;;2.97;2.77;;;;;;;;;;5024193;28;20287;-76
2023/10/27 05:42:16;;;;;;;2.60;2.40;;;;;;;;;;5020618;28;20237;-76
2023/10/27 05:44:43;;;;;;;3.40;2.73;;;;;;;;;;5021827;28;20340;-74
2023/10/27 05:47:11;;;;;;;3.13;2.83;;;;;;;;;;5017878;28;20198;-74
2023/10/27 05:49:39;;;;;;;3.03;2.73;;;;;;;;;;5026184;28;20650;-77
2023/10/27 05:52:07;;;;;;;3.00;2.77;;;;;;;;;;5024097;28;20682;-76
2023/10/27 05:54:35;;;;;;;3.40;3.10;;;;;;;;;;5020878;28;20202;-77
2023/10/27 05:57:04;;;;;;;3.27;3.03;;;;;;;;;;5015389;28;20213;-76
2023/10/27 05:59:31;;;;;;;2.87;2.67;;;;;;;;;;5019141;28;20214;-77
2023/10/27 06:02:00;;;;;;;3.30;2.90;;;;;;;;;;5022063;28;20223;-76
2023/10/27 06:04:42;;;;;;;2.60;2.40;;;;;;;;;;5017953;28;20218;-75
2023/10/27 06:07:15;;;;;;;3.10;2.80;;;;;;;;;;5026271;28;20301;-78
2023/10/27 06:09:44;;;;;;;2.37;2.10;;;;;;;;;;5018745;28;20222;-75
2023/10/27 06:12:13;;;;;;;2.33;2.23;;;;;;;;;;5004849;28;20214;-75
2023/10/27 06:14:44;;;;;;;2.47;2.33;;;;;;;;;;5015872;28;20966;-74
2023/10/27 06:17:13;;;;;;;3.13;2.83;;;;;;;;;;5006565;28;20210;-77
2023/10/27 06:19:41;;;;;;;3.27;2.97;;;;;;;;;;5021210;28;20255;-77
2023/10/27 06:22:09;;;;;;;3.43;3.13;;;;;;;;;;5021421;28;20353;-77
2023/10/27 06:24:38;;;;;;;3.83;3.53;;;;;;;;;;5004177;28;20219;-76
2023/10/27 06:27:06;;;;;;;1.70;1.60;;;;;;;;;;5018310;28;20222;-76
2023/10/27 06:29:34;;;;;;;1.83;1.73;;;;;;;;;;5027998;28;20199;-76
2023/10/27 06:32:03;;;;;;;2.17;1.50;;;;;;;;;;5022419;28;20318;-78
2023/10/27 06:34:32;;;;;;;0.93;0.90;;;;;;;;;;5017833;28;20423;-75
2023/10/27 06:37:01;;;;;;;1.30;1.30;;;;;;;;;;5019848;28;20212;-76
2023/10/27 06:39:29;;;;;;;0.77;0.77;;;;;;;;;;5016332;28;20293;-76
2023/10/27 06:41:58;;;;;;;0.90;0.90;;;;;;;;;;5008785;28;20236;-77
2023/10/27 06:44:27;;;;;;;0.60;0.60;;;;;;;;;;5030134;28;20256;-77
2023/10/27 06:46:56;;;;;;;0.93;0.70;;;;;;;;;;5031330;28;20206;-76
2023/10/27 06:49:25;;;;;;;0.80;0.80;;;;;;;;;;5030428;28;20682;-76
2023/10/27 06:51:54;;;;;;;0.70;0.70;;;;;;;;;;5022255;28;20746;-77
2023/10/27 06:54:25;;;;;;;1.70;0.70;;;;;;;;;;5022099;28;20222;-77
2023/10/27 06:56:54;;;;;;;1.33;1.00;;;;;;;;;;5026845;28;20690;-79
2023/10/27 06:59:23;;;;;;;0.93;0.93;;;;;;;;;;5037005;28;20214;-76
2023/10/27 07:01:54;;;;;;;0.90;0.90;;;;;;;;;;5022505;28;20234;-76
2023/10/27 07:04:22;;;;;;;0.80;0.80;;;;;;;;;;5021173;28;20728;-77
2023/10/27 07:06:51;;;;;;;2.00;0.87;;;;;;;;;;5021265;28;20684;-77
2023/10/27 07:09:22;;;;;;;0.90;0.90;;;;;;;;;;5022192;28;20207;-76
2023/10/27 07:11:50;;;;;;;0.80;0.80;;;;;;;;;;5015759;28;20235;-74
2023/10/27 07:14:19;;;;;;;0.73;0.73;;;;;;;;;;5018865;28;20211;-75
2023/10/27 07:16:52;;;;;;;0.70;0.70;;;;;;;;;;5019064;28;20215;-73
2023/10/27 07:19:20;;;;;;;0.80;0.80;;;;;;;;;;5008618;28;20200;-74
2023/10/27 07:21:48;;;;;;;0.90;0.90;;;;;;;;;;5026426;28;20645;-75
2023/10/27 07:24:17;;;;;;;0.83;0.83;;;;;;;;;;5013044;28;20206;-76
2023/10/27 07:26:45;;;;;;;1.50;0.77;;;;;;;;;;5014675;28;20663;-77
2023/10/27 07:29:15;;;;;;;1.00;1.00;;;;;;;;;;5019941;28;20226;-77
2023/10/27 07:31:43;;;;;;;0.73;0.73;;;;;;;;;;5021866;28;20246;-74
2023/10/27 07:34:11;;;;;;;1.13;0.77;;;;;;;;;;5011552;28;20217;-75
2023/10/27 07:36:43;;;;;;;1.27;0.80;;;;;;;;;;5020695;28;20724;-75
2023/10/27 07:39:14;;;;;;;0.80;0.80;;;;;;;;;;5019192;28;20208;-73
2023/10/27 07:41:44;;;;;;;0.80;0.80;;;;;;;;;;5008343;28;20750;-74
2023/10/27 07:44:12;;;;;;;0.70;0.70;;;;;;;;;;5017840;28;20208;-75
2023/10/27 07:46:40;;;;;;;1.67;1.57;;;;;;;;;;5017003;28;20687;-75
2023/10/27 07:49:08;;;;;;;0.87;0.87;;;;;;;;;;5011189;28;20203;-73
2023/10/27 07:51:36;;;;;;;0.70;0.70;;;;;;;;;;5017247;28;20247;-73
2023/10/27 07:54:04;;;;;;;0.90;0.90;;;;;;;;;;5016780;28;20299;-73
2023/10/27 07:56:33;;;;;;;1.00;1.00;;;;;;;;;;5011959;28;20203;-74
2023/10/27 07:59:02;;;;;;;0.80;0.80;;;;;;;;;;4992622;28;20582;-74
2023/10/27 08:01:30;;;;;;;1.60;1.07;;;;;;;;;;4990874;28;20631;-76
2023/10/27 08:04:02;;;;;;;1.00;0.90;;;;;;;;;;4993993;28;20222;-76
2023/10/27 08:06:33;;;;;;;0.77;0.77;;;;;;;;;;5022601;28;20207;-76
2023/10/27 08:09:02;;;;;;;1.00;1.00;;;;;;;;;;5023048;28;20253;-76
2023/10/27 08:11:32;;;;;;;1.23;1.00;;;;;;;;;;5029667;28;20960;-74
2023/10/27 08:14:00;;;;;;;0.93;0.90;;;;;;;;;;5029887;28;20245;-74
2023/10/27 08:16:30;;;;;;;1.10;1.10;;;;;;;;;;5031500;28;20711;-76
2023/10/27 08:19:01;;;;;;;1.30;1.20;;;;;;;;;;5015527;28;20207;-76
2023/10/27 08:21:31;;;;;;;1.73;1.63;;;;;;;;;;5014588;28;20230;-75
2023/10/27 08:24:00;;;;;;;2.70;2.50;;;;;;;;;;5020563;28;20226;-78
2023/10/27 08:26:30;;;;;;;4.13;3.73;;;;;;;;;;5023010;28;20290;-76
2023/10/27 08:29:00;;;;;;;1.60;1.50;;;;;;;;;;5013480;28;20202;-76
2023/10/27 08:31:29;;;;;;;1.27;0.90;;;;;;;;;;5026434;28;20223;-77
2023/10/27 08:34:00;;;;;;;1.80;1.03;;;;;;;;;;5014875;28;20222;-75
2023/10/27 08:36:29;;;;;;;1.00;1.00;;;;;;;;;;5001492;28;20207;-76
2023/10/27 08:38:57;;;;;;;0.80;0.80;;;;;;;;;;5013288;28;20206;-75
2023/10/27 08:41:25;;;;;;;1.17;0.90;;;;;;;;;;5022751;28;20245;-75
2023/10/27 08:43:54;;;;;;;1.00;1.00;;;;;;;;;;5036483;28;20230;-79
2023/10/27 08:46:37;;;;;;;1.10;1.00;;;;;;;;;;5019474;28;20218;-78
2023/10/27 08:49:05;;;;;;;1.83;0.97;;;;;;;;;;5021614;28;20203;-75
2023/10/27 08:51:33;;;;;;;1.80;1.10;;;;;;;;;;5033807;28;20234;-78
2023/10/27 08:54:00;;;;;;;1.60;1.10;;;;;;;;;;5031685;28;20694;-75
2023/10/27 08:56:28;;;;;;;2.50;0.90;;;;;;;;;;5026301;28;20230;-77
2023/10/27 08:58:56;;;;;;;1.20;1.00;;;;;;;;;;5044322;28;20217;-76
2023/10/27 09:01:26;;;;;;;1.60;1.27;;;;;;;;;;5029669;28;20231;-76
2023/10/27 09:04:12;;;;;;;1.73;1.20;;;;;;;;;;5030566;28;20222;-78
2023/10/27 09:06:40;;;;;;;1.63;1.00;;;;;;;;;;5019833;28;20221;-77
2023/10/27 09:09:11;;;;;;;1.90;1.10;;;;;;;;;;5035035;28;20213;-77
2023/10/27 09:11:40;;;;;;;1.57;1.00;;;;;;;;;;5038295;28;20223;-76
2023/10/27 09:14:18;;;;;;;1.60;1.10;;;;;;;;;;5023997;28;20204;-77
2023/10/27 09:16:46;;;;;;;1.10;0.90;;;;;;;;;;5032016;28;20207;-77
2023/10/27 09:19:20;;;;;;;2.73;1.17;;;;;;;;;;5025661;28;20208;-77
2023/10/27 09:21:48;;;;;;;3.97;1.30;;;;;;;;;;5026930;28;20317;-76
2023/10/27 09:24:21;;;;;;;1.97;1.20;;;;;;;;;;5019101;28;20316;-75
2023/10/27 09:26:49;;;;;;;1.67;1.07;;;;;;;;;;5018507;28;20217;-78
2023/10/27 09:29:16;;;;;;;1.87;1.00;;;;;;;;;;5004953;28;20579;-77
2023/10/27 09:31:44;;;;;;;3.37;1.20;;;;;;;;;;5023816;28;20246;-77
2023/10/27 09:34:17;;;;;;;2.33;1.00;;;;;;;;;;5031339;28;20218;-77
2023/10/27 09:36:46;;;;;;;1.60;0.90;;;;;;;;;;5021265;28;20206;-77
2023/10/27 09:39:19;;;;;;;3.73;1.30;;;;;;;;;;5013595;28;20294;-76
2023/10/27 09:41:50;;;;;;;1.07;0.90;;;;;;;;;;5022536;28;20709;-77
2023/10/27 09:44:20;;;;;;;1.33;1.10;;;;;;;;;;5025357;28;20218;-75
2023/10/27 09:46:52;;;;;;;2.07;1.17;;;;;;;;;;5026459;28;20578;-74
2023/10/27 09:49:25;;;;;;;1.40;1.00;;;;;;;;;;5032311;28;20210;-75
2023/10/27 09:51:55;;;;;;;1.43;0.90;;;;;;;;;;5030492;28;20218;-75
2023/10/27 09:54:23;;;;;;;3.73;1.07;;;;;;;;;;5027959;28;20294;-74
2023/10/27 09:56:50;;;;;;;2.93;1.10;;;;;;;;;;5016474;28;20215;-75
2023/10/27 09:59:18;;;;;;;1.90;0.97;;;;;;;;;;5041259;28;20213;-77
2023/10/27 10:01:46;;;;;;;1.70;1.07;;;;;;;;;;5029130;28;20261;-76
2023/10/27 10:04:14;;;;;;;2.93;1.30;;;;;;;;;;5027655;28;20231;-75
2023/10/27 10:06:43;;;;;;;2.47;1.30;;;;;;;;;;5033638;28;20223;-77
2023/10/27 10:09:19;;;;;;;2.97;1.03;;;;;;;;;;5012908;28;20249;-77
2023/10/27 10:11:49;;;;;;;3.30;1.23;;;;;;;;;;5017835;28;20219;-77
2023/10/27 10:14:52;;;;;;;2.93;0.90;;;;;;;;;;5016456;28;20606;-77
2023/10/27 10:17:38;;;;;;;2.10;1.10;;;;;;;;;;4965825;28;20627;-76
2023/10/27 10:20:05;;;;;;;4.40;1.00;;;;;;;;;;5007219;28;20261;-77
2023/10/27 10:22:40;;;;;;;1.55;1.02;;;;;;;;;;5020679;28;20286;-76
2023/10/27 10:25:23;;;;;;;2.83;1.17;;;;;;;;;;5026009;28;20210;-77
2023/10/27 10:28:08;;;;;;;1.47;1.07;;;;;;;;;;5008540;28;20628;-75
2023/10/27 10:30:43;;;;;;;0.88;0.85;;;;;;;;;;5022790;28;20222;-75
2023/10/27 10:33:14;;;;;;;1.20;0.90;;;;;;;;;;5028179;28;20290;-74
2023/10/27 10:35:43;;;;;;;4.40;1.10;;;;;;;;;;5015752;28;20286;-76
2023/10/27 10:38:22;;;;;;;1.77;1.05;;;;;;;;;;5039616;28;20209;-76
2023/10/27 10:41:01;;;;;;;6.05;1.30;;;;;;;;;;5035591;28;20607;-74
2023/10/27 10:43:34;;;;;;;0.80;0.80;;;;;;;;;;5035690;28;20695;-75
2023/10/27 10:46:05;;;;;;;4.38;1.17;;;;;;;;;;5032282;28;20203;-74
2023/10/27 10:48:33;;;;;;;2.08;1.13;;;;;;;;;;5028515;28;20351;-74
2023/10/27 10:51:11;;;;;;;2.43;1.13;;;;;;;;;;5002473;28;20239;-74
2023/10/27 10:53:39;;;;;;;1.30;1.00;;;;;;;;;;5048870;28;20506;-78
2023/10/27 10:56:07;;;;;;;3.57;1.30;;;;;;;;;;5039029;28;20214;-76
2023/10/27 10:58:40;;;;;;;2.07;1.00;;;;;;;;;;5030873;28;20471;-75
2023/10/27 11:01:15;;;;;;;1.30;1.00;;;;;;;;;;5030858;28;20309;-72
2023/10/27 11:03:50;;;;;;;3.73;1.30;;;;;;;;;;5032423;28;20231;-75
2023/10/27 11:06:22;;;;;;;2.80;1.02;;;;;;;;;;5034197;28;20241;-76
2023/10/27 11:08:51;;;;;;;2.03;1.08;;;;;;;;;;5009785;28;20235;-77
2023/10/27 11:11:20;;;;;;;3.45;1.17;;;;;;;;;;5032785;28;20630;-77
2023/10/27 11:13:58;;;;;;;2.35;1.00;;;;;;;;;;5036622;28;20722;-75
2023/10/27 11:16:49;;;;;;;3.10;0.90;;;;;;;;;;5036717;28;20608;-75
2023/10/27 11:19:20;;;;;;;4.35;0.95;;;;;;;;;;5034000;28;20702;-74
2023/10/27 11:21:54;;;;;;;1.77;1.10;;;;;;;;;;5026130;28;20241;-75
2023/10/27 11:24:23;;;;;;;2.70;0.90;;;;;;;;;;5040783;28;20674;-76
2023/10/27 11:26:51;;;;;;;5.18;1.20;;;;;;;;;;5016613;28;20207;-78
2023/10/27 11:29:18;;;;;;;1.85;0.90;;;;;;;;;;5044096;28;20222;-76
2023/10/27 11:31:47;;;;;;;2.73;1.07;;;;;;;;;;5014103;28;20226;-76
2023/10/27 11:34:20;;;;;;;2.30;1.10;;;;;;;;;;5044605;28;20206;-75
2023/10/27 11:37:06;;;;;;;3.30;0.90;;;;;;;;;;5033546;28;20191;-74
2023/10/27 11:39:36;;;;;;;1.23;0.97;;;;;;;;;;5029776;28;20337;-75
2023/10/27 11:42:04;;;;;;;2.22;1.00;;;;;;;;;;5033281;28;20781;-76
2023/10/27 11:44:32;;;;;;;1.10;1.00;;;;;;;;;;5035701;28;20598;-76
2023/10/27 11:47:04;;;;;;;0.70;0.70;;;;;;;;;;5026424;28;20299;-75
2023/10/27 11:49:32;;;;;;;1.70;0.80;;;;;;;;;;5038268;28;20203;-75
2023/10/27 11:52:00;;;;;;;2.97;1.60;;;;;;;;;;5034193;28;20301;-75
2023/10/27 11:54:28;;;;;;;3.80;1.20;;;;;;;;;;5023896;28;20215;-75
2023/10/27 11:56:57;;;;;;;0.95;0.95;;;;;;;;;;5041174;28;20653;-75
2023/10/27 11:59:25;;;;;;;1.33;1.23;;;;;;;;;;5045339;28;20208;-74
2023/10/27 12:01:54;;;;;;;4.00;1.50;;;;;;;;;;5037834;28;20218;-73
2023/10/27 12:04:22;;;;;;;0.93;0.70;;;;;;;;;;5036879;28;20226;-75
2023/10/27 12:06:53;;;;;;;0.98;0.90;;;;;;;;;;5036290;28;20294;-74
2023/10/27 12:09:22;;;;;;;1.35;0.82;;;;;;;;;;5029084;28;20195;-74
2023/10/27 12:11:52;;;;;;;2.30;1.00;;;;;;;;;;5021593;28;20400;-75
2023/10/27 12:14:22;;;;;;;1.77;0.77;;;;;;;;;;5030650;28;20203;-75
2023/10/27 12:16:52;;;;;;;2.25;0.90;;;;;;;;;;5029381;28;20199;-75
2023/10/27 12:19:21;;;;;;;1.17;0.80;;;;;;;;;;5015302;28;20210;-74
2023/10/27 12:21:50;;;;;;;0.77;0.70;;;;;;;;;;5035879;28;20234;-74
2023/10/27 12:24:22;;;;;;;0.88;0.63;;;;;;;;;;5038886;28;20240;-74
2023/10/27 12:26:55;;;;;;;1.60;0.90;;;;;;;;;;5052084;28;20210;-74
2023/10/27 12:29:26;;;;;;;0.80;0.65;;;;;;;;;;5026692;28;20215;-74
2023/10/27 12:31:59;;;;;;;0.50;0.50;;;;;;;;;;5025057;28;20230;-76
2023/10/27 12:34:28;;;;;;;0.85;0.70;;;;;;;;;;5027065;28;20210;-76
2023/10/27 12:36:56;;;;;;;0.95;0.50;;;;;;;;;;5034584;28;20268;-77
2023/10/27 12:39:32;;;;;;;1.00;0.57;;;;;;;;;;5048383;28;20206;-76
2023/10/27 12:42:07;;;;;;;1.92;0.60;;;;;;;;;;5044197;28;20233;-80
2023/10/27 12:44:36;;;;;;;1.65;0.70;;;;;;;;;;5037119;28;20231;-75
2023/10/27 12:47:08;;;;;;;1.35;0.60;;;;;;;;;;5020372;28;20203;-75
2023/10/27 12:49:38;;;;;;;1.45;0.73;;;;;;;;;;5027840;28;20199;-76
2023/10/27 12:52:07;;;;;;;0.75;0.70;;;;;;;;;;5033192;28;20311;-74
2023/10/27 12:54:38;;;;;;;0.73;0.68;;;;;;;;;;5027676;28;20249;-75
2023/10/27 12:57:06;;;;;;;0.70;0.70;;;;;;;;;;5023299;28;20290;-76
2023/10/27 12:59:34;;;;;;;2.17;0.60;;;;;;;;;;5010321;28;20675;-76
2023/10/27 13:02:02;;;;;;;0.90;0.57;;;;;;;;;;5025909;28;20227;-76
2023/10/27 13:04:29;;;;;;;1.25;0.77;;;;;;;;;;5027066;28;20286;-75
2023/10/27 13:06:58;;;;;;;1.48;0.50;;;;;;;;;;5014550;28;20222;-74
2023/10/27 13:09:27;;;;;;;0.60;0.60;;;;;;;;;;5028063;28;20596;-74
2023/10/27 13:11:56;;;;;;;0.60;0.60;;;;;;;;;;5022268;28;20223;-75
2023/10/27 13:14:26;;;;;;;0.98;0.73;;;;;;;;;;5027655;28;20215;-74
2023/10/27 13:16:54;;;;;;;0.52;0.52;;;;;;;;;;5027944;28;20242;-74
2023/10/27 13:19:21;;;;;;;0.50;0.50;;;;;;;;;;5022443;28;20203;-74
2023/10/27 13:21:49;;;;;;;0.68;0.60;;;;;;;;;;5022468;28;20583;-73
2023/10/27 13:24:17;;;;;;;1.95;0.70;;;;;;;;;;5029665;28;20228;-72
2023/10/27 13:26:45;;;;;;;0.50;0.50;;;;;;;;;;5016676;28;20287;-76
2023/10/27 13:29:15;;;;;;;0.50;0.50;;;;;;;;;;5030883;28;20203;-74
2023/10/27 13:31:44;;;;;;;0.50;0.47;;;;;;;;;;5013636;28;20230;-74
2023/10/27 13:34:13;;;;;;;2.05;0.70;;;;;;;;;;5032968;28;20215;-73
2023/10/27 13:36:42;;;;;;;1.17;0.70;;;;;;;;;;5024319;28;20253;-75
2023/10/27 13:39:10;;;;;;;0.50;0.50;;;;;;;;;;5027372;28;20241;-74
2023/10/27 13:41:38;;;;;;;0.63;0.63;;;;;;;;;;5022770;28;20233;-75
2023/10/27 13:44:06;;;;;;;1.00;0.80;;;;;;;;;;5020118;28;20716;-75
2023/10/27 13:46:33;;;;;;;0.60;0.60;;;;;;;;;;5004234;28;20203;-75
2023/10/27 13:49:01;;;;;;;0.95;0.70;;;;;;;;;;5027934;28;20305;-74
2023/10/27 13:51:28;;;;;;;0.73;0.73;;;;;;;;;;5023897;28;20231;-74
2023/10/27 13:53:55;;;;;;;0.80;0.80;;;;;;;;;;5023514;28;20215;-73
2023/10/27 13:56:23;;;;;;;0.98;0.85;;;;;;;;;;5032069;28;20417;-75
2023/10/27 13:58:52;;;;;;;0.70;0.70;;;;;;;;;;5026998;28;22034;-73
2023/10/27 14:01:19;;;;;;;2.05;0.75;;;;;;;;;;5029580;28;20272;-73
2023/10/27 14:03:46;;;;;;;0.55;0.55;;;;;;;;;;5026597;28;20237;-74
2023/10/27 14:06:16;;;;;;;0.68;0.68;;;;;;;;;;5025540;28;20590;-74
2023/10/27 14:08:46;;;;;;;0.60;0.60;;;;;;;;;;5022569;28;20213;-73
2023/10/27 14:11:15;;;;;;;0.65;0.60;;;;;;;;;;5025649;28;20219;-72
2023/10/27 14:13:46;;;;;;;0.60;0.60;;;;;;;;;;5033595;28;20214;-74
2023/10/27 14:16:16;;;;;;;1.63;0.80;;;;;;;;;;5030825;28;20361;-73
2023/10/27 14:18:44;;;;;;;0.70;0.70;;;;;;;;;;5030016;28;20301;-73
2023/10/27 14:21:11;;;;;;;1.73;0.63;;;;;;;;;;5031608;28;20302;-74
2023/10/27 14:23:39;;;;;;;0.90;0.63;;;;;;;;;;5032198;28;20205;-73
2023/10/27 14:26:11;;;;;;;1.38;0.60;;;;;;;;;;5028437;28;20205;-73
2023/10/27 14:28:41;;;;;;;0.50;0.50;;;;;;;;;;5030865;28;20203;-72
2023/10/27 14:31:10;;;;;;;1.13;0.70;;;;;;;;;;5042440;28;20222;-76
2023/10/27 14:33:38;;;;;;;0.68;0.68;;;;;;;;;;5015413;28;20655;-73
2023/10/27 14:36:12;;;;;;;0.65;0.60;;;;;;;;;;5034604;28;20202;-77
2023/10/27 14:38:40;;;;;;;0.90;0.60;;;;;;;;;;5026278;28;20697;-74
2023/10/27 14:41:10;;;;;;;0.70;0.70;;;;;;;;;;5025592;28;20288;-76
2023/10/27 14:43:39;;;;;;;0.73;0.68;;;;;;;;;;5025736;28;20551;-76
2023/10/27 14:46:15;;;;;;;1.08;0.90;;;;;;;;;;5022604;28;20200;-74
2023/10/27 14:48:49;;;;;;;0.88;0.65;;;;;;;;;;5022553;28;20226;-75
2023/10/27 14:51:22;;;;;;;0.60;0.60;;;;;;;;;;5020233;28;20269;-78
2023/10/27 14:53:54;;;;;;;1.38;0.70;;;;;;;;;;5043305;28;20209;-79
2023/10/27 14:56:27;;;;;;;0.80;0.80;;;;;;;;;;5035675;28;20203;-75